Union Mills, Indiana
Current Conditions -  °F | °C
As of 6:15 AM on Wednesday 28 Jan 2015 (Local Time) from KPPO Reporting Station
Broken Clouds Broken Clouds  
Wind Chill: 15°   Ceiling: 11000
Heat Index: 15°   Visibility: 7mi
Dew Point: 13°   Wind: 0mph
Humidity: 90%   Direction: NA
Pressure: 30.31"   Gusts: NA
Location:  41.49°N, 86.78°W
Report Text: KPPO 281215Z AUTO 00000KT 7SM BKN110 M09/M10 A3031 RMK AO2 T10921105
Loading
Personal Weather Stations






























Interactive Weather Map New forecast layout! Learn more

10-Day Weather Forecast

Advertisements
Track Severe Weather on mobile